createdAt,value
2023-03-19T00:02:03.993Z,75.94
2023-03-19T00:05:00.800Z,77.52
2023-03-19T00:07:49.310Z,78.27
2023-03-19T00:10:39.716Z,77.95
2023-03-19T00:13:28.508Z,78.62
2023-03-19T00:16:17.075Z,78.44
2023-03-19T00:19:06.986Z,78.46
2023-03-19T00:21:56.223Z,78.44
2023-03-19T00:24:44.717Z,77.19
2023-03-19T00:27:33.191Z,76.60
2023-03-19T00:30:21.933Z,76.05
2023-03-19T00:33:10.514Z,75.77
2023-03-19T00:36:00.686Z,76.33
2023-03-19T00:38:49.168Z,77.07
2023-03-19T00:41:37.896Z,78.37
2023-03-19T00:44:26.602Z,80.60
2023-03-19T00:47:15.056Z,81.43
2023-03-19T00:50:03.676Z,82.32
2023-03-19T00:52:53.497Z,83.12
2023-03-19T00:55:42.068Z,83.51
2023-03-19T00:58:30.486Z,83.88
2023-03-19T01:01:19.232Z,84.26
2023-03-19T01:04:07.790Z,84.41
2023-03-19T01:06:56.339Z,83.79
2023-03-19T01:09:46.508Z,83.49
2023-03-19T01:12:35.147Z,84.27
2023-03-19T01:15:23.616Z,84.78
2023-03-19T01:18:12.896Z,86.30
2023-03-19T01:21:01.616Z,86.32
2023-03-19T01:23:51.757Z,85.62
2023-03-19T01:26:41.820Z,83.32
2023-03-19T01:29:30.370Z,83.62
2023-03-19T01:32:18.938Z,83.29
2023-03-19T01:35:08.182Z,82.81
2023-03-19T01:37:56.628Z,82.04
2023-03-19T01:40:45.978Z,82.01
2023-03-19T01:43:36.503Z,81.87
2023-03-19T01:46:28.678Z,82.05
2023-03-19T01:49:18.719Z,83.22
2023-03-19T01:52:08.429Z,83.57
2023-03-19T01:54:57.542Z,84.22
2023-03-19T01:57:46.135Z,84.23
2023-03-19T02:00:36.937Z,85.45
2023-03-19T02:03:25.743Z,85.52
2023-03-19T02:06:14.617Z,84.80
2023-03-19T02:09:03.796Z,84.71
2023-03-19T02:11:52.432Z,84.74
2023-03-19T02:14:40.945Z,84.91
2023-03-19T02:17:32.334Z,84.89
2023-03-19T02:20:25.823Z,84.43
2023-03-19T02:23:17.662Z,84.24
2023-03-19T02:26:09.277Z,83.76
2023-03-19T02:28:58.043Z,83.44
2023-03-19T02:31:47.236Z,82.50
2023-03-19T02:34:38.663Z,82.37
2023-03-19T02:37:32.883Z,82.07
2023-03-19T02:40:24.233Z,81.03
2023-03-19T02:43:14.030Z,81.57
2023-03-19T02:46:03.015Z,80.81
2023-03-19T02:48:52.547Z,80.65
2023-03-19T02:51:41.999Z,80.73
2023-03-19T02:54:30.662Z,81.02
2023-03-19T02:57:19.175Z,80.95
2023-03-19T03:00:10.866Z,80.35
2023-03-19T03:02:59.779Z,80.70
2023-03-19T03:05:48.310Z,81.10
2023-03-19T03:08:37.931Z,81.75
2023-03-19T03:11:27.112Z,82.18
2023-03-19T03:14:15.936Z,83.41
2023-03-19T03:17:05.809Z,84.57
2023-03-19T03:19:54.301Z,84.56
2023-03-19T03:22:43.160Z,85.62
2023-03-19T03:25:31.688Z,85.58
2023-03-19T03:28:20.672Z,86.90
2023-03-19T03:31:09.550Z,87.13
2023-03-19T03:33:59.458Z,87.11
2023-03-19T03:36:47.939Z,86.57
2023-03-19T03:39:37.623Z,86.00
2023-03-19T03:42:26.220Z,86.65
2023-03-19T03:45:15.301Z,87.66
2023-03-19T03:48:03.858Z,87.24
2023-03-19T03:50:53.754Z,87.65
2023-03-19T03:53:42.250Z,88.09
2023-03-19T03:56:31.398Z,88.69
2023-03-19T03:59:19.868Z,88.91
2023-03-19T04:02:08.441Z,89.65
2023-03-19T04:04:57.214Z,89.51
2023-03-19T04:07:47.863Z,89.41
2023-03-19T04:10:36.747Z,89.89
2023-03-19T04:13:25.548Z,89.91
2023-03-19T04:16:15.481Z,89.46
2023-03-19T04:19:04.139Z,90.39
2023-03-19T04:21:52.619Z,90.80
2023-03-19T04:24:42.404Z,91.39
2023-03-19T04:27:31.081Z,90.93
2023-03-19T04:30:19.980Z,91.21
2023-03-19T04:33:08.519Z,92.15
2023-03-19T04:35:57.208Z,92.13
2023-03-19T04:38:46.115Z,91.98
2023-03-19T04:41:35.923Z,92.93
2023-03-19T04:44:24.362Z,93.41
2023-03-19T04:47:13.299Z,93.94
2023-03-19T04:50:02.686Z,95.15
2023-03-19T04:52:51.175Z,95.03
2023-03-19T04:55:39.760Z,96.04
2023-03-19T04:58:29.667Z,96.88
2023-03-19T05:01:18.227Z,97.34
2023-03-19T05:04:07.170Z,97.37
2023-03-19T05:06:56.573Z,97.62
2023-03-19T05:09:46.319Z,97.93
2023-03-19T05:12:34.913Z,97.62
2023-03-19T05:15:24.748Z,97.40
2023-03-19T05:18:14.649Z,95.79
2023-03-19T05:21:04.865Z,93.31
2023-03-19T05:23:54.688Z,92.67
2023-03-19T05:26:43.705Z,93.33
2023-03-19T05:29:32.263Z,92.76
2023-03-19T05:32:22.173Z,92.78
2023-03-19T05:35:11.231Z,91.88
2023-03-19T05:37:59.919Z,90.93
2023-03-19T05:40:48.443Z,90.99
2023-03-19T05:43:37.159Z,91.92
2023-03-19T05:46:25.728Z,91.42
2023-03-19T05:49:16.224Z,90.28
2023-03-19T05:52:04.897Z,90.70
2023-03-19T05:54:53.417Z,89.46
2023-03-19T05:57:42.295Z,88.93
2023-03-19T06:00:30.811Z,89.34
2023-03-19T06:03:19.329Z,88.80
2023-03-19T06:06:09.352Z,88.34
2023-03-19T06:08:57.826Z,88.19
2023-03-19T06:11:46.374Z,89.74
2023-03-19T06:14:34.906Z,89.01
2023-03-19T06:17:23.362Z,88.75
2023-03-19T06:20:13.191Z,88.88
2023-03-19T06:23:03.075Z,89.26
2023-03-19T06:25:51.640Z,89.43
2023-03-19T06:28:40.268Z,89.36
2023-03-19T06:31:28.826Z,88.90
2023-03-19T06:34:17.386Z,89.48
2023-03-19T06:37:06.134Z,89.73
2023-03-19T06:39:56.185Z,90.73
2023-03-19T06:42:46.516Z,91.69
2023-03-19T06:45:35.163Z,92.03
2023-03-19T06:48:23.681Z,92.12
2023-03-19T06:51:12.171Z,92.23
2023-03-19T06:54:00.771Z,91.53
2023-03-19T06:56:50.861Z,91.27
2023-03-19T06:59:39.388Z,91.50
2023-03-19T07:02:28.064Z,91.45
2023-03-19T07:05:16.642Z,91.89
2023-03-19T07:08:11.575Z,90.75
2023-03-19T07:11:05.164Z,90.54
2023-03-19T07:13:55.070Z,88.41
2023-03-19T07:16:43.677Z,87.06
2023-03-19T07:19:32.333Z,86.89
2023-03-19T07:22:21.672Z,86.53
2023-03-19T07:25:10.804Z,86.09
2023-03-19T07:27:59.332Z,84.40
2023-03-19T07:30:49.191Z,83.26
2023-03-19T07:33:37.667Z,82.78
2023-03-19T07:36:26.304Z,81.85
2023-03-19T07:39:14.784Z,81.90
2023-03-19T07:42:03.440Z,81.11
2023-03-19T07:44:51.892Z,80.71
2023-03-19T07:47:41.865Z,80.22
2023-03-19T07:50:30.842Z,79.49
2023-03-19T07:53:19.470Z,77.81
2023-03-19T07:56:08.710Z,77.63
2023-03-19T07:58:57.205Z,76.55
2023-03-19T08:01:46.039Z,76.06
2023-03-19T08:04:36.028Z,74.72
2023-03-19T08:07:24.729Z,74.75
2023-03-19T08:10:13.614Z,75.96
2023-03-19T08:13:02.100Z,74.09
2023-03-19T08:15:50.950Z,73.22
2023-03-19T08:18:39.530Z,78.39
2023-03-19T08:21:33.540Z,71.58
2023-03-19T08:24:22.180Z,69.58
2023-03-19T08:27:11.128Z,66.81
2023-03-19T08:29:59.654Z,65.29
2023-03-19T08:32:49.267Z,64.04
2023-03-19T08:35:37.999Z,62.40
2023-03-19T08:38:27.894Z,60.50
2023-03-19T08:41:16.431Z,61.09
2023-03-19T08:44:05.041Z,61.19
2023-03-19T08:46:53.582Z,58.92
2023-03-19T08:49:42.090Z,56.87
2023-03-19T08:52:31.021Z,57.21
2023-03-19T08:55:21.024Z,56.73
2023-03-19T08:58:09.526Z,56.87
2023-03-19T09:01:03.963Z,57.41
2023-03-19T09:03:52.490Z,58.44
2023-03-19T09:06:41.014Z,58.68
2023-03-19T09:09:29.509Z,58.76
2023-03-19T09:12:19.626Z,56.11
2023-03-19T09:15:09.043Z,52.69
2023-03-19T09:17:57.529Z,53.07
2023-03-19T09:20:46.534Z,50.65
2023-03-19T09:23:35.457Z,48.77
2023-03-19T09:26:23.976Z,49.56
2023-03-19T09:29:13.975Z,49.61
2023-03-19T09:32:02.423Z,50.27
2023-03-19T09:34:50.994Z,51.65
2023-03-19T09:37:39.561Z,50.81
2023-03-19T09:40:30.487Z,52.13
2023-03-19T09:43:32.071Z,51.52
2023-03-19T09:46:26.567Z,51.63
2023-03-19T09:49:20.971Z,51.41
2023-03-19T09:52:16.937Z,51.18
2023-03-19T09:55:12.336Z,51.01
2023-03-19T09:58:02.149Z,50.29
2023-03-19T10:00:51.838Z,50.08
2023-03-19T10:03:48.818Z,48.63
2023-03-19T10:06:41.081Z,47.97
2023-03-19T10:09:47.893Z,47.36
2023-03-19T10:12:46.416Z,48.23
2023-03-19T10:15:37.851Z,48.52
2023-03-19T10:18:29.201Z,47.78
2023-03-19T10:21:21.522Z,47.17
2023-03-19T10:24:12.794Z,46.96
2023-03-19T10:27:03.150Z,47.19
2023-03-19T10:29:51.686Z,45.50
2023-03-19T10:32:43.165Z,45.17
2023-03-19T10:35:40.029Z,45.25
2023-03-19T10:38:33.504Z,46.53
2023-03-19T10:41:29.015Z,46.98
2023-03-19T10:44:30.812Z,46.80
2023-03-19T10:47:20.459Z,47.80
2023-03-19T10:50:11.672Z,48.01
2023-03-19T10:53:06.854Z,48.02
2023-03-19T10:55:58.678Z,48.39
2023-03-19T10:58:58.925Z,47.58
2023-03-19T11:01:47.500Z,46.93
2023-03-19T11:04:35.970Z,47.46
2023-03-19T11:07:26.110Z,48.11
2023-03-19T11:10:16.184Z,47.86
2023-03-19T11:13:08.021Z,48.91
2023-03-19T11:15:59.762Z,49.20
2023-03-19T11:18:49.890Z,49.38
2023-03-19T11:21:38.489Z,50.23
2023-03-19T11:24:27.797Z,50.67
2023-03-19T11:27:16.281Z,50.21
2023-03-19T11:30:15.432Z,50.85
2023-03-19T11:33:15.830Z,50.33
2023-03-19T11:36:10.995Z,51.65
2023-03-19T11:39:14.640Z,51.52
2023-03-19T11:42:42.660Z,50.59
2023-03-19T11:45:34.808Z,51.17
2023-03-19T11:48:36.253Z,51.56
2023-03-19T11:51:30.877Z,51.78
2023-03-19T11:54:25.067Z,52.36
2023-03-19T11:57:17.151Z,51.44
2023-03-19T12:00:16.887Z,50.93
2023-03-19T12:03:41.406Z,51.48
2023-03-19T12:06:37.832Z,52.38
2023-03-19T12:09:30.792Z,51.70
2023-03-19T12:12:26.582Z,51.06
2023-03-19T12:15:18.583Z,51.79
2023-03-19T12:18:14.337Z,52.66
2023-03-19T12:21:07.873Z,52.18
2023-03-19T12:24:04.782Z,52.62
2023-03-19T12:27:03.242Z,52.70
2023-03-19T12:29:57.296Z,53.29
2023-03-19T12:32:58.123Z,53.20
2023-03-19T12:35:50.009Z,52.62
2023-03-19T12:38:41.490Z,52.22
2023-03-19T12:41:31.508Z,51.93
2023-03-19T12:44:21.853Z,52.12
2023-03-19T12:47:15.934Z,52.30
2023-03-19T12:50:07.443Z,51.74
2023-03-19T12:52:58.566Z,52.31
2023-03-19T12:55:51.284Z,53.02
2023-03-19T12:58:47.795Z,52.17
2023-03-19T13:01:39.131Z,53.18
2023-03-19T13:04:30.244Z,53.56
2023-03-19T13:07:22.788Z,54.13
2023-03-19T13:10:14.952Z,54.04
2023-03-19T13:13:16.877Z,54.60
2023-03-19T13:16:10.510Z,54.78
2023-03-19T13:19:06.473Z,55.32
2023-03-19T13:21:56.922Z,54.80
2023-03-19T13:24:46.404Z,54.51
2023-03-19T13:27:36.850Z,55.79
2023-03-19T13:30:27.062Z,55.48
2023-03-19T13:33:21.309Z,55.67
2023-03-19T13:36:15.064Z,55.69
2023-03-19T13:39:12.146Z,56.93
2023-03-19T13:42:35.412Z,57.05
2023-03-19T13:45:36.388Z,56.94
2023-03-19T13:48:37.024Z,57.50
2023-03-19T13:51:27.028Z,57.28
2023-03-19T13:54:18.739Z,57.21
2023-03-19T13:57:23.499Z,57.14
2023-03-19T14:00:58.305Z,57.48
2023-03-19T14:03:55.988Z,56.45
2023-03-19T14:06:46.883Z,57.70
2023-03-19T14:09:38.710Z,56.99
2023-03-19T14:12:35.196Z,57.95
2023-03-19T14:15:25.070Z,57.66
2023-03-19T14:18:18.732Z,57.92
2023-03-19T14:21:12.969Z,59.25
2023-03-19T14:24:55.430Z,58.55
2023-03-19T14:27:37.298Z,58.39
2023-03-19T14:30:31.275Z,58.81
2023-03-19T14:33:24.333Z,58.64
2023-03-19T14:36:16.879Z,59.57
2023-03-19T14:39:10.582Z,59.96
2023-03-19T14:42:04.712Z,59.74
2023-03-19T14:45:34.410Z,60.02
2023-03-19T14:48:47.608Z,59.99
2023-03-19T14:51:55.599Z,60.82
2023-03-19T14:54:46.548Z,60.75
2023-03-19T14:57:36.243Z,61.33
2023-03-19T15:00:24.841Z,61.64
2023-03-19T15:03:24.253Z,61.46
2023-03-19T15:06:15.945Z,61.71
2023-03-19T15:09:08.046Z,62.46
2023-03-19T15:12:33.854Z,62.37
2023-03-19T15:15:32.290Z,62.40
2023-03-19T15:18:21.172Z,62.21
2023-03-19T15:21:09.706Z,62.10
2023-03-19T15:23:59.697Z,62.37
2023-03-19T15:26:48.229Z,61.19
2023-03-19T15:29:38.121Z,59.81
2023-03-19T15:32:52.047Z,59.55
2023-03-19T15:35:43.672Z,59.36
2023-03-19T15:38:35.334Z,58.22
2023-03-19T15:41:26.795Z,58.28
2023-03-19T15:44:19.290Z,58.31
2023-03-19T15:47:09.964Z,58.68
2023-03-19T15:50:00.737Z,58.76
2023-03-19T15:52:52.436Z,59.17
2023-03-19T15:55:41.217Z,59.81
2023-03-19T15:58:33.212Z,60.86
2023-03-19T16:01:21.931Z,61.47
2023-03-19T16:04:16.261Z,62.46
2023-03-19T16:07:05.375Z,62.95
2023-03-19T16:09:53.909Z,62.64
2023-03-19T16:12:42.618Z,63.26
2023-03-19T16:15:35.334Z,63.22
2023-03-19T16:18:25.673Z,64.14
2023-03-19T16:21:16.621Z,65.01
2023-03-19T16:24:12.785Z,65.33
2023-03-19T16:27:04.595Z,66.33
2023-03-19T16:29:58.134Z,74.42
2023-03-19T16:32:48.306Z,81.78
2023-03-19T16:35:37.846Z,86.13
2023-03-19T16:38:28.313Z,90.74
2023-03-19T16:41:18.259Z,94.33
2023-03-19T16:44:14.626Z,92.66
2023-03-19T16:47:03.201Z,96.46
2023-03-19T16:49:53.084Z,98.11
2023-03-19T16:52:41.960Z,97.52
2023-03-19T16:55:33.772Z,99.17
2023-03-19T16:58:29.197Z,100.00
2023-03-19T17:01:19.425Z,100.00
2023-03-19T17:04:12.751Z,100.00
2023-03-19T17:07:02.601Z,100.00
2023-03-19T17:09:51.140Z,100.00
2023-03-19T17:12:39.720Z,100.00
2023-03-19T17:15:30.318Z,100.00
2023-03-19T17:18:21.526Z,100.00
2023-03-19T17:21:15.226Z,100.00
2023-03-19T17:24:22.977Z,100.00
2023-03-19T17:27:11.750Z,100.00
2023-03-19T17:30:00.273Z,100.00
2023-03-19T17:32:49.858Z,100.00
2023-03-19T17:35:38.473Z,100.00
2023-03-19T17:38:32.200Z,100.00
2023-03-19T17:41:22.091Z,100.00
2023-03-19T17:44:10.660Z,100.00
2023-03-19T17:46:59.172Z,100.00
2023-03-19T17:49:47.899Z,100.00
2023-03-19T17:52:36.487Z,100.00
2023-03-19T17:55:26.921Z,100.00
2023-03-19T17:58:18.649Z,100.00
2023-03-19T18:01:12.731Z,100.00
2023-03-19T18:04:02.120Z,100.00
2023-03-19T18:06:53.971Z,100.00
2023-03-19T18:09:42.511Z,100.00
2023-03-19T18:12:31.135Z,100.00
2023-03-19T18:15:21.616Z,100.00
2023-03-19T18:18:16.835Z,100.00
2023-03-19T18:21:09.689Z,100.00
2023-03-19T18:23:58.259Z,100.00
2023-03-19T18:26:46.848Z,100.00
2023-03-19T18:29:35.460Z,100.00
2023-03-19T18:32:28.770Z,100.00
2023-03-19T18:35:18.564Z,100.00
2023-03-19T18:38:14.561Z,100.00
2023-03-19T18:41:03.147Z,100.00
2023-03-19T18:43:51.840Z,100.00
2023-03-19T18:46:41.217Z,100.00
2023-03-19T18:49:31.187Z,100.00
2023-03-19T18:52:19.851Z,100.00
2023-03-19T18:55:10.032Z,100.00
2023-03-19T18:58:00.990Z,100.00
2023-03-19T19:00:50.222Z,100.00
2023-03-19T19:03:38.784Z,100.00
2023-03-19T19:06:46.002Z,100.00
2023-03-19T19:09:35.240Z,100.00
2023-03-19T19:12:23.740Z,100.00
2023-03-19T19:15:24.675Z,100.00
2023-03-19T19:18:19.388Z,100.00
2023-03-19T19:21:08.031Z,100.00
2023-03-19T19:23:58.022Z,100.00
2023-03-19T19:26:47.953Z,100.00
2023-03-19T19:29:37.288Z,100.00
2023-03-19T19:32:27.228Z,100.00
2023-03-19T19:35:18.131Z,100.00
2023-03-19T19:38:06.923Z,100.00
2023-03-19T19:40:58.258Z,100.00
2023-03-19T19:43:47.633Z,100.00
2023-03-19T19:46:36.379Z,100.00
2023-03-19T19:49:25.290Z,100.00
2023-03-19T19:52:14.862Z,100.00
2023-03-19T19:55:03.485Z,100.00
2023-03-19T19:57:54.372Z,100.00
2023-03-19T20:00:47.755Z,100.00
2023-03-19T20:03:42.076Z,100.00
2023-03-19T20:06:30.758Z,100.00
2023-03-19T20:09:22.256Z,100.00
2023-03-19T20:12:19.960Z,100.00
2023-03-19T20:15:17.466Z,100.00
2023-03-19T20:18:06.736Z,100.00
2023-03-19T20:20:55.800Z,100.00
2023-03-19T20:23:45.634Z,100.00
2023-03-19T20:26:35.008Z,100.00
2023-03-19T20:29:23.561Z,100.00
2023-03-19T20:32:26.313Z,100.00
2023-03-19T20:35:17.820Z,100.00
2023-03-19T20:38:07.262Z,100.00
2023-03-19T20:40:57.532Z,100.00
2023-03-19T20:43:46.410Z,100.00
2023-03-19T20:46:35.156Z,100.00
2023-03-19T20:49:25.094Z,100.00
2023-03-19T20:52:14.836Z,100.00
2023-03-19T20:55:03.415Z,100.00
2023-03-19T20:57:52.316Z,100.00
2023-03-19T21:00:41.124Z,100.00
2023-03-19T21:03:31.432Z,100.00
2023-03-19T21:06:23.090Z,100.00
2023-03-19T21:09:11.892Z,100.00
2023-03-19T21:12:00.493Z,100.00
2023-03-19T21:14:49.041Z,100.00
2023-03-19T21:17:37.643Z,100.00
2023-03-19T21:20:27.536Z,100.00
2023-03-19T21:23:21.034Z,100.00
2023-03-19T21:26:14.384Z,100.00
2023-03-19T21:29:05.591Z,100.00
2023-03-19T21:31:55.470Z,100.00
2023-03-19T21:34:44.019Z,100.00
2023-03-19T21:37:33.586Z,100.00
2023-03-19T21:40:26.650Z,100.00
2023-03-19T21:43:21.463Z,100.00
2023-03-19T21:46:23.740Z,100.00
2023-03-19T21:49:13.517Z,100.00
2023-03-19T21:52:02.062Z,100.00
2023-03-19T21:54:50.642Z,100.00
2023-03-19T21:57:40.553Z,100.00
2023-03-19T22:00:30.058Z,100.00
2023-03-19T22:03:20.400Z,100.00
2023-03-19T22:06:12.222Z,100.00
2023-03-19T22:09:00.739Z,100.00
2023-03-19T22:11:49.224Z,100.00
2023-03-19T22:14:40.197Z,100.00
2023-03-19T22:17:29.536Z,100.00
2023-03-19T22:20:21.480Z,100.00
2023-03-19T22:23:10.166Z,100.00
2023-03-19T22:25:58.664Z,100.00
2023-03-19T22:28:47.193Z,100.00
2023-03-19T22:31:37.085Z,100.00
2023-03-19T22:34:28.586Z,100.00
2023-03-19T22:37:26.429Z,100.00
2023-03-19T22:40:17.293Z,100.00
2023-03-19T22:43:15.118Z,100.00
2023-03-19T22:46:05.335Z,100.00
2023-03-19T22:48:55.663Z,100.00
2023-03-19T22:51:44.653Z,100.00
2023-03-19T22:54:33.156Z,100.00
2023-03-19T22:57:21.675Z,100.00
2023-03-19T23:00:15.030Z,100.00
2023-03-19T23:03:03.545Z,100.00
2023-03-19T23:05:54.928Z,100.00
2023-03-19T23:08:43.412Z,100.00
2023-03-19T23:11:31.903Z,100.00
2023-03-19T23:14:35.706Z,100.00
2023-03-19T23:17:24.371Z,100.00
2023-03-19T23:20:14.732Z,100.00
2023-03-19T23:23:04.660Z,100.00
2023-03-19T23:25:53.194Z,100.00
2023-03-19T23:28:42.381Z,100.00
2023-03-19T23:31:32.824Z,100.00
2023-03-19T23:34:22.098Z,100.00
2023-03-19T23:37:10.743Z,100.00
2023-03-19T23:40:00.661Z,100.00
2023-03-19T23:42:51.386Z,100.00
2023-03-19T23:45:41.696Z,100.00
2023-03-19T23:48:34.229Z,100.00
2023-03-19T23:51:22.924Z,100.00
2023-03-19T23:54:29.668Z,100.00
2023-03-19T23:57:27.304Z,100.00
